createdAt,value
2018-04-14T00:00:09.999Z,95.03
2018-04-14T00:01:10.195Z,94.17
2018-04-14T00:02:10.378Z,94.56
2018-04-14T00:03:10.548Z,95.32
2018-04-14T00:04:10.729Z,94.70
2018-04-14T00:05:10.908Z,94.32
2018-04-14T00:06:11.083Z,94.60
2018-04-14T00:07:11.264Z,94.98
2018-04-14T00:08:11.445Z,95.08
2018-04-14T00:09:11.637Z,95.75
2018-04-14T00:10:11.813Z,95.46
2018-04-14T00:11:11.984Z,95.65
2018-04-14T00:12:12.161Z,95.37
2018-04-14T00:13:12.338Z,95.17
2018-04-14T00:14:12.522Z,95.65
2018-04-14T00:15:12.708Z,95.17
2018-04-14T00:16:12.886Z,96.22
2018-04-14T00:17:13.056Z,95.94
2018-04-14T00:18:13.235Z,96.03
2018-04-14T00:19:13.406Z,95.94
2018-04-14T00:20:13.601Z,96.22
2018-04-14T00:21:13.797Z,95.84
2018-04-14T00:22:13.988Z,95.08
2018-04-14T00:23:14.180Z,95.08
2018-04-14T00:24:14.359Z,94.98
2018-04-14T00:25:14.541Z,95.03
2018-04-14T00:26:14.719Z,95.08
2018-04-14T00:27:14.901Z,94.98
2018-04-14T00:28:15.073Z,95.08
2018-04-14T00:29:15.272Z,94.60
2018-04-14T00:30:15.456Z,94.79
2018-04-14T00:31:15.636Z,95.17
2018-04-14T00:32:15.809Z,95.08
2018-04-14T00:33:15.986Z,95.08
2018-04-14T00:34:16.159Z,95.03
2018-04-14T00:35:16.341Z,95.03
2018-04-14T00:36:16.516Z,94.89
2018-04-14T00:37:16.680Z,94.89
2018-04-14T00:38:16.859Z,95.03
2018-04-14T00:39:17.033Z,95.03
2018-04-14T00:40:17.212Z,94.65
2018-04-14T00:41:17.377Z,95.41
2018-04-14T00:42:17.555Z,94.60
2018-04-14T00:43:17.726Z,94.93
2018-04-14T00:44:17.904Z,94.93
2018-04-14T00:45:18.086Z,95.03
2018-04-14T00:46:18.264Z,94.70
2018-04-14T00:47:18.442Z,94.56
2018-04-14T00:48:18.624Z,94.36
2018-04-14T00:49:18.797Z,94.41
2018-04-14T00:50:18.977Z,94.74
2018-04-14T00:51:19.155Z,94.56
2018-04-14T00:52:19.341Z,94.70
2018-04-14T00:53:19.519Z,94.36
2018-04-14T00:54:19.699Z,94.41
2018-04-14T00:55:19.877Z,94.74
2018-04-14T00:56:20.053Z,95.37
2018-04-14T00:57:20.222Z,95.27
2018-04-14T00:58:20.402Z,94.51
2018-04-14T00:59:20.588Z,93.98
2018-04-14T01:00:20.772Z,94.22
2018-04-14T01:01:20.940Z,94.12
2018-04-14T01:02:21.120Z,94.60
2018-04-14T01:03:21.298Z,94.32
2018-04-14T01:04:21.476Z,95.17
2018-04-14T01:05:21.654Z,94.93
2018-04-14T01:06:21.827Z,94.98
2018-04-14T01:07:22.007Z,94.98
2018-04-14T01:08:22.190Z,94.98
2018-04-14T01:09:22.368Z,94.79
2018-04-14T01:10:22.543Z,94.60
2018-04-14T01:11:22.728Z,94.56
2018-04-14T01:12:22.904Z,94.74
2018-04-14T01:13:23.073Z,94.56
2018-04-14T01:14:23.265Z,94.22
2018-04-14T01:15:23.439Z,94.32
2018-04-14T01:16:23.615Z,94.32
2018-04-14T01:17:23.789Z,94.70
2018-04-14T01:18:23.971Z,94.51
2018-04-14T01:19:24.145Z,94.70
2018-04-14T01:20:24.313Z,95.17
2018-04-14T01:21:24.487Z,94.98
2018-04-14T01:22:24.661Z,94.98
2018-04-14T01:23:24.839Z,94.89
2018-04-14T01:24:25.017Z,94.98
2018-04-14T01:25:25.190Z,95.08
2018-04-14T01:26:25.367Z,95.08
2018-04-14T01:27:25.548Z,95.46
2018-04-14T01:28:25.716Z,95.75
2018-04-14T01:29:25.888Z,95.56
2018-04-14T01:30:26.067Z,95.56
2018-04-14T01:31:26.236Z,95.46
2018-04-14T01:32:26.446Z,95.46
2018-04-14T01:33:26.598Z,95.37
2018-04-14T01:34:26.772Z,95.56
2018-04-14T01:35:26.949Z,95.94
2018-04-14T01:36:27.126Z,95.94
2018-04-14T01:37:27.300Z,95.75
2018-04-14T01:38:27.465Z,95.65
2018-04-14T01:39:27.648Z,95.65
2018-04-14T01:40:27.824Z,95.17
2018-04-14T01:41:28.001Z,96.22
2018-04-14T01:42:28.171Z,95.75
2018-04-14T01:43:28.352Z,95.84
2018-04-14T01:44:28.533Z,96.03
2018-04-14T01:45:28.707Z,95.84
2018-04-14T01:46:28.882Z,95.56
2018-04-14T01:47:29.058Z,95.56
2018-04-14T01:48:29.244Z,95.46
2018-04-14T01:49:29.423Z,95.75
2018-04-14T01:50:29.606Z,95.08
2018-04-14T01:51:29.777Z,95.27
2018-04-14T01:52:29.946Z,94.89
2018-04-14T01:53:30.120Z,94.70
2018-04-14T01:54:30.295Z,94.98
2018-04-14T01:55:30.470Z,94.51
2018-04-14T01:56:30.649Z,94.98
2018-04-14T01:57:30.826Z,95.08
2018-04-14T01:58:31.003Z,94.98
2018-04-14T01:59:31.178Z,94.41
2018-04-14T02:00:31.360Z,94.98
2018-04-14T02:01:31.533Z,94.51
2018-04-14T02:02:31.711Z,94.22
2018-04-14T02:03:31.890Z,94.22
2018-04-14T02:04:32.066Z,94.41
2018-04-14T02:05:32.236Z,93.93
2018-04-14T02:06:32.410Z,94.03
2018-04-14T02:07:32.587Z,94.32
2018-04-14T02:08:32.758Z,94.41
2018-04-14T02:09:32.932Z,94.32
2018-04-14T02:10:33.106Z,94.32
2018-04-14T02:11:33.288Z,94.60
2018-04-14T02:12:33.473Z,94.60
2018-04-14T02:13:33.642Z,94.37
2018-04-14T02:14:33.813Z,94.37
2018-04-14T02:15:33.991Z,94.37
2018-04-14T02:16:34.161Z,94.84
2018-04-14T02:17:34.331Z,94.27
2018-04-14T02:18:34.509Z,94.27
2018-04-14T02:19:34.678Z,93.98
2018-04-14T02:20:34.855Z,94.56
2018-04-14T02:21:35.034Z,94.17
2018-04-14T02:22:35.207Z,94.84
2018-04-14T02:23:35.387Z,94.74
2018-04-14T02:24:35.566Z,94.84
2018-04-14T02:25:35.746Z,95.41
2018-04-14T02:26:35.928Z,95.12
2018-04-14T02:27:36.101Z,95.03
2018-04-14T02:28:36.275Z,94.89
2018-04-14T02:29:36.443Z,95.41
2018-04-14T02:30:36.643Z,95.17
2018-04-14T02:31:36.798Z,95.46
2018-04-14T02:32:36.966Z,95.46
2018-04-14T02:33:37.146Z,95.41
2018-04-14T02:34:37.320Z,95.84
2018-04-14T02:35:37.493Z,95.75
2018-04-14T02:36:37.671Z,95.56
2018-04-14T02:37:37.857Z,95.36
2018-04-14T02:38:38.037Z,95.56
2018-04-14T02:39:38.215Z,95.84
2018-04-14T02:40:38.400Z,95.94
2018-04-14T02:41:38.571Z,95.65
2018-04-14T02:42:38.741Z,95.94
2018-04-14T02:43:38.925Z,95.65
2018-04-14T02:44:39.094Z,95.94
2018-04-14T02:45:39.268Z,95.56
2018-04-14T02:46:39.439Z,95.36
2018-04-14T02:47:39.613Z,95.27
2018-04-14T02:48:39.785Z,95.94
2018-04-14T02:49:39.956Z,95.65
2018-04-14T02:50:40.140Z,95.65
2018-04-14T02:51:40.327Z,95.94
2018-04-14T02:52:40.502Z,96.03
2018-04-14T02:53:40.680Z,95.36
2018-04-14T02:54:40.859Z,95.36
2018-04-14T02:55:41.039Z,95.51
2018-04-14T02:56:41.205Z,95.89
2018-04-14T02:57:41.395Z,95.75
2018-04-14T02:58:41.571Z,96.46
2018-04-14T02:59:41.753Z,96.46
2018-04-14T03:00:41.929Z,96.46
2018-04-14T03:01:42.111Z,96.75
2018-04-14T03:02:42.286Z,96.46
2018-04-14T03:03:42.468Z,96.75
2018-04-14T03:04:42.636Z,96.27
2018-04-14T03:05:42.815Z,96.27
2018-04-14T03:06:42.996Z,96.36
2018-04-14T03:07:43.174Z,96.36
2018-04-14T03:08:43.346Z,96.36
2018-04-14T03:09:43.530Z,96.17
2018-04-14T03:10:43.709Z,95.60
2018-04-14T03:11:43.880Z,95.60
2018-04-14T03:12:44.052Z,95.89
2018-04-14T03:13:44.227Z,95.60
2018-04-14T03:14:44.404Z,95.70
2018-04-14T03:15:44.587Z,96.46
2018-04-14T03:16:44.762Z,96.46
2018-04-14T03:17:44.938Z,96.17
2018-04-14T03:18:45.118Z,96.17
2018-04-14T03:19:45.285Z,96.27
2018-04-14T03:20:45.455Z,96.27
2018-04-14T03:21:45.632Z,95.41
2018-04-14T03:22:45.806Z,95.70
2018-04-14T03:23:45.984Z,95.98
2018-04-14T03:24:46.162Z,95.98
2018-04-14T03:25:46.332Z,96.08
2018-04-14T03:26:46.513Z,95.89
2018-04-14T03:27:46.693Z,95.60
2018-04-14T03:28:46.862Z,95.41
2018-04-14T03:29:47.037Z,95.41
2018-04-14T03:30:47.205Z,95.98
2018-04-14T03:31:47.380Z,95.89
2018-04-14T03:32:47.553Z,95.89
2018-04-14T03:33:47.731Z,95.46
2018-04-14T03:34:47.907Z,95.12
2018-04-14T03:35:48.083Z,95.60
2018-04-14T03:36:48.256Z,95.79
2018-04-14T03:37:48.435Z,94.84
2018-04-14T03:38:48.602Z,94.84
2018-04-14T03:39:48.770Z,94.65
2018-04-14T03:40:48.951Z,94.56
2018-04-14T03:41:49.120Z,95.03
2018-04-14T03:42:49.294Z,94.74
2018-04-14T03:43:49.465Z,94.84
2018-04-14T03:44:49.636Z,95.41
2018-04-14T03:45:49.827Z,95.98
2018-04-14T03:46:49.991Z,96.17
2018-04-14T03:47:50.166Z,96.89
2018-04-14T03:48:50.351Z,96.84
2018-04-14T03:49:50.526Z,97.03
2018-04-14T03:50:50.702Z,97.41
2018-04-14T03:51:50.879Z,97.41
2018-04-14T03:52:51.053Z,97.89
2018-04-14T03:53:51.227Z,97.41
2018-04-14T03:54:51.422Z,97.79
2018-04-14T03:55:51.595Z,98.27
2018-04-14T03:56:51.773Z,98.18
2018-04-14T03:57:51.949Z,98.36
2018-04-14T03:58:52.125Z,98.18
2018-04-14T03:59:52.301Z,98.36
2018-04-14T04:00:52.474Z,98.18
2018-04-14T04:01:52.645Z,98.94
2018-04-14T04:02:52.827Z,99.13
2018-04-14T04:03:53.013Z,98.94
2018-04-14T04:04:53.186Z,99.22
2018-04-14T04:05:53.366Z,98.55
2018-04-14T04:06:53.539Z,98.46
2018-04-14T04:07:53.716Z,98.18
2018-04-14T04:08:53.898Z,97.99
2018-04-14T04:09:54.064Z,98.36
2018-04-14T04:10:54.239Z,98.27
2018-04-14T04:11:54.416Z,98.08
2018-04-14T04:12:54.600Z,97.89
2018-04-14T04:13:54.765Z,98.51
2018-04-14T04:14:54.941Z,97.94
2018-04-14T04:15:55.113Z,97.84
2018-04-14T04:16:55.293Z,96.98
2018-04-14T04:17:55.463Z,96.60
2018-04-14T04:18:55.629Z,97.17
2018-04-14T04:19:55.814Z,97.27
2018-04-14T04:20:55.985Z,96.89
2018-04-14T04:21:56.163Z,96.60
2018-04-14T04:22:56.332Z,96.41
2018-04-14T04:23:56.510Z,96.80
2018-04-14T04:24:56.679Z,96.70
2018-04-14T04:25:56.848Z,97.27
2018-04-14T04:26:57.025Z,96.80
2018-04-14T04:27:57.197Z,96.70
2018-04-14T04:28:57.412Z,97.27
2018-04-14T04:29:57.548Z,97.08
2018-04-14T04:30:57.720Z,97.36
2018-04-14T04:31:57.897Z,96.98
2018-04-14T04:32:58.064Z,96.51
2018-04-14T04:33:58.242Z,97.08
2018-04-14T04:34:58.422Z,96.41
2018-04-14T04:35:58.612Z,96.41
2018-04-14T04:36:58.798Z,96.51
2018-04-14T04:37:58.956Z,96.51
2018-04-14T04:38:59.133Z,96.41
2018-04-14T04:39:59.294Z,96.32
2018-04-14T04:40:59.478Z,96.70
2018-04-14T04:41:59.658Z,96.51
2018-04-14T04:42:59.841Z,95.56
2018-04-14T04:44:00.027Z,95.17
2018-04-14T04:45:00.203Z,95.56
2018-04-14T04:46:00.400Z,95.27
2018-04-14T04:47:00.626Z,95.65
2018-04-14T04:48:00.682Z,95.65
2018-04-14T04:49:00.914Z,95.46
2018-04-14T04:50:01.077Z,95.65
2018-04-14T04:51:01.168Z,94.98
2018-04-14T04:52:01.342Z,95.03
2018-04-14T04:53:01.543Z,95.17
2018-04-14T04:54:01.743Z,94.70
2018-04-14T04:55:01.929Z,94.08
2018-04-14T04:56:02.108Z,94.13
2018-04-14T04:57:02.288Z,94.32
2018-04-14T04:58:02.465Z,94.60
2018-04-14T04:59:02.636Z,94.22
2018-04-14T05:00:02.819Z,94.60
2018-04-14T05:01:02.990Z,93.93
2018-04-14T05:02:03.173Z,93.93
2018-04-14T05:03:03.355Z,94.60
2018-04-14T05:04:03.527Z,94.41
2018-04-14T05:05:03.714Z,94.13
2018-04-14T05:06:03.879Z,93.79
2018-04-14T05:07:04.051Z,93.93
2018-04-14T05:08:04.231Z,93.93
2018-04-14T05:09:04.419Z,93.65
2018-04-14T05:10:04.595Z,93.93
2018-04-14T05:11:04.780Z,93.65
2018-04-14T05:12:05.425Z,93.37
2018-04-14T05:13:05.088Z,94.03
2018-04-14T05:14:05.262Z,94.03
2018-04-14T05:15:05.451Z,94.13
2018-04-14T05:16:05.627Z,94.89
2018-04-14T05:17:05.821Z,94.70
2018-04-14T05:18:05.991Z,94.79
2018-04-14T05:19:06.162Z,95.36
2018-04-14T05:20:06.343Z,95.36
2018-04-14T05:21:06.527Z,95.46
2018-04-14T05:22:06.699Z,95.56
2018-04-14T05:23:06.877Z,95.36
2018-04-14T05:24:07.062Z,94.70
2018-04-14T05:25:07.229Z,94.79
2018-04-14T05:26:07.405Z,94.84
2018-04-14T05:27:07.593Z,95.32
2018-04-14T05:28:07.763Z,95.51
2018-04-14T05:29:07.935Z,96.46
2018-04-14T05:30:08.124Z,96.17
2018-04-14T05:31:08.293Z,96.75
2018-04-14T05:32:08.472Z,96.84
2018-04-14T05:33:08.649Z,96.65
2018-04-14T05:34:08.840Z,96.75
2018-04-14T05:35:09.054Z,96.46
2018-04-14T05:36:09.245Z,96.46
2018-04-14T05:37:09.399Z,96.08
2018-04-14T05:38:09.577Z,95.17
2018-04-14T05:39:09.771Z,95.70
2018-04-14T05:40:09.949Z,95.65
2018-04-14T05:41:10.122Z,94.79
2018-04-14T05:42:10.302Z,94.60
2018-04-14T05:43:10.494Z,93.74
2018-04-14T05:44:10.679Z,93.17
2018-04-14T05:45:10.859Z,93.37
2018-04-14T05:46:11.053Z,93.17
2018-04-14T05:47:11.634Z,93.27
2018-04-14T05:48:12.411Z,93.55
2018-04-14T05:49:11.582Z,93.08
2018-04-14T05:50:11.753Z,93.46
2018-04-14T05:51:11.929Z,93.22
2018-04-14T05:52:12.711Z,92.98
2018-04-14T05:53:13.399Z,93.03
2018-04-14T05:54:12.532Z,92.65
2018-04-14T05:55:12.696Z,93.22
2018-04-14T05:56:12.856Z,92.65
2018-04-14T05:57:13.025Z,92.55
2018-04-14T05:58:13.270Z,92.08
2018-04-14T05:59:13.405Z,91.98
2018-04-14T06:00:13.663Z,91.55
2018-04-14T06:01:13.794Z,90.69
2018-04-14T06:02:13.976Z,90.50
2018-04-14T06:03:14.153Z,90.50
2018-04-14T06:04:14.333Z,90.50
2018-04-14T06:05:14.513Z,91.46
2018-04-14T06:06:15.046Z,91.74
2018-04-14T06:07:14.847Z,91.55
2018-04-14T06:08:15.037Z,91.17
2018-04-14T06:09:15.269Z,90.03
2018-04-14T06:10:15.397Z,88.35
2018-04-14T06:11:15.579Z,87.82
2018-04-14T06:12:15.766Z,85.82
2018-04-14T06:13:15.961Z,85.25
2018-04-14T06:14:16.133Z,84.96
2018-04-14T06:15:16.320Z,84.39
2018-04-14T06:16:16.504Z,83.90
2018-04-14T06:17:16.683Z,82.56
2018-04-14T06:18:16.863Z,81.55
2018-04-14T06:19:17.051Z,81.60
2018-04-14T06:20:17.236Z,81.74
2018-04-14T06:21:17.415Z,81.07
2018-04-14T06:22:17.672Z,80.69
2018-04-14T06:23:17.763Z,80.06
2018-04-14T06:24:17.945Z,77.80
2018-04-14T06:25:18.124Z,77.33
2018-04-14T06:26:18.307Z,77.04
2018-04-14T06:27:18.492Z,75.16
2018-04-14T06:28:18.677Z,73.57
2018-04-14T06:29:18.868Z,73.38
2018-04-14T06:30:19.050Z,72.36
2018-04-14T06:31:19.246Z,70.83
2018-04-14T06:32:19.431Z,70.38
2018-04-14T06:33:19.632Z,69.17
2018-04-14T06:34:19.831Z,67.29
2018-04-14T06:35:20.026Z,65.84
2018-04-14T06:36:20.212Z,65.40
2018-04-14T06:37:20.400Z,64.12
2018-04-14T06:38:20.594Z,61.91
2018-04-14T06:39:20.787Z,59.92
2018-04-14T06:40:20.969Z,59.56
2018-04-14T06:41:21.147Z,57.99
2018-04-14T06:42:21.345Z,57.83
2018-04-14T06:43:21.524Z,58.35
2018-04-14T06:44:21.721Z,59.31
2018-04-14T06:45:21.917Z,59.05
2018-04-14T06:46:22.105Z,58.53
2018-04-14T06:47:22.283Z,55.99
2018-04-14T06:48:22.468Z,53.13
2018-04-14T06:49:22.663Z,51.82
2018-04-14T06:50:22.842Z,50.89
2018-04-14T06:51:23.030Z,49.27
2018-04-14T06:52:23.474Z,48.03
2018-04-14T06:53:23.366Z,48.76
2018-04-14T06:54:23.543Z,48.66
2018-04-14T06:55:23.745Z,48.90
2018-04-14T06:56:23.925Z,49.05
2018-04-14T06:57:24.978Z,46.95
2018-04-14T06:58:24.371Z,47.07
2018-04-14T06:59:24.591Z,46.66
2018-04-14T07:00:25.095Z,46.66
2018-04-14T07:01:24.830Z,47.36
2018-04-14T07:02:25.195Z,45.57
2018-04-14T07:03:25.403Z,43.73
2018-04-14T07:04:25.625Z,44.29
2018-04-14T07:05:25.528Z,44.67
2018-04-14T07:06:25.740Z,43.85
2018-04-14T07:07:25.951Z,43.19
2018-04-14T07:08:27.160Z,42.71
2018-04-14T07:09:26.539Z,41.83
2018-04-14T07:10:26.419Z,42.26
2018-04-14T07:11:26.812Z,41.02
2018-04-14T07:12:26.793Z,40.17
2018-04-14T07:13:27.034Z,38.62
2018-04-14T07:14:27.194Z,39.04
2018-04-14T07:15:27.387Z,40.89
2018-04-14T07:16:27.577Z,40.34
2018-04-14T07:17:27.935Z,40.23
2018-04-14T07:18:28.370Z,40.05
2018-04-14T07:19:28.106Z,39.88
2018-04-14T07:20:28.298Z,38.37
2018-04-14T07:21:28.502Z,37.66
2018-04-14T07:22:28.704Z,39.37
2018-04-14T07:23:28.911Z,38.58
2018-04-14T07:24:29.110Z,40.21
2018-04-14T07:25:29.326Z,39.74
2018-04-14T07:26:29.531Z,39.59
2018-04-14T07:27:29.750Z,39.20
2018-04-14T07:28:30.017Z,38.91
2018-04-14T07:29:30.181Z,39.36
2018-04-14T07:30:30.246Z,39.45
2018-04-14T07:31:30.460Z,40.28
2018-04-14T07:32:30.719Z,39.57
2018-04-14T07:33:30.826Z,38.93
2018-04-14T07:34:31.024Z,38.34
2018-04-14T07:35:31.220Z,37.94
2018-04-14T07:36:33.268Z,37.45
2018-04-14T07:37:31.711Z,39.80
2018-04-14T07:38:31.909Z,41.21
2018-04-14T07:39:31.991Z,42.00
2018-04-14T07:40:32.373Z,42.28
2018-04-14T07:41:32.335Z,43.15
2018-04-14T07:42:32.532Z,42.44
2018-04-14T07:43:33.055Z,42.00
2018-04-14T07:44:32.914Z,42.32
2018-04-14T07:45:33.111Z,41.66
2018-04-14T07:46:33.310Z,41.39
2018-04-14T07:47:33.540Z,41.39
2018-04-14T07:48:33.725Z,41.12
2018-04-14T07:49:33.950Z,39.34
2018-04-14T07:50:34.153Z,41.67
2018-04-14T07:51:34.482Z,42.32
2018-04-14T07:52:34.549Z,42.45
2018-04-14T07:53:34.788Z,43.78
2018-04-14T07:54:35.045Z,44.48
2018-04-14T07:55:35.197Z,43.17
2018-04-14T07:56:35.388Z,42.45
2018-04-14T07:57:35.606Z,43.49
2018-04-14T07:58:35.781Z,43.71
2018-04-14T07:59:35.969Z,41.66
2018-04-14T08:00:36.165Z,40.36
2018-04-14T08:01:36.359Z,38.83
2018-04-14T08:02:36.556Z,39.53
2018-04-14T08:03:36.759Z,39.84
2018-04-14T08:04:37.176Z,40.17
2018-04-14T08:05:37.134Z,41.25
2018-04-14T08:06:37.319Z,41.16
2018-04-14T08:07:37.514Z,41.86
2018-04-14T08:08:37.695Z,39.95
2018-04-14T08:09:37.884Z,41.12
2018-04-14T08:10:38.108Z,39.49
2018-04-14T08:11:38.321Z,38.62
2018-04-14T08:12:38.464Z,38.64
2018-04-14T08:13:38.706Z,37.84
2018-04-14T08:14:38.870Z,39.62
2018-04-14T08:15:39.094Z,39.61
2018-04-14T08:16:39.275Z,39.69
2018-04-14T08:17:39.467Z,38.37
2018-04-14T08:18:39.673Z,37.12
2018-04-14T08:19:39.865Z,36.15
2018-04-14T08:20:40.087Z,35.42
2018-04-14T08:21:40.275Z,34.53
2018-04-14T08:22:40.467Z,33.39
2018-04-14T08:23:40.666Z,32.29
2018-04-14T08:24:40.877Z,31.70
2018-04-14T08:25:41.053Z,30.65
2018-04-14T08:26:41.255Z,31.17
2018-04-14T08:27:41.447Z,30.80
2018-04-14T08:28:41.697Z,32.23
2018-04-14T08:29:41.753Z,32.99
2018-04-14T08:30:41.950Z,34.08
2018-04-14T08:31:42.140Z,34.12
2018-04-14T08:32:42.372Z,36.40
2018-04-14T08:33:42.530Z,36.79
2018-04-14T08:34:42.734Z,37.34
2018-04-14T08:35:42.924Z,36.24
2018-04-14T08:36:43.119Z,35.74
2018-04-14T08:37:43.311Z,35.66
2018-04-14T08:38:43.599Z,35.66
2018-04-14T08:39:43.667Z,37.24
2018-04-14T08:40:43.860Z,38.29
2018-04-14T08:41:44.056Z,37.66
2018-04-14T08:42:44.259Z,37.61
2018-04-14T08:43:44.443Z,37.08
2018-04-14T08:44:44.690Z,37.41
2018-04-14T08:45:44.845Z,38.52
2018-04-14T08:46:45.041Z,36.91
2018-04-14T08:47:45.236Z,35.49
2018-04-14T08:48:45.429Z,34.92
2018-04-14T08:49:48.107Z,34.48
2018-04-14T08:50:45.811Z,35.39
2018-04-14T08:51:46.006Z,34.47
2018-04-14T08:52:46.194Z,32.82
2018-04-14T08:53:46.422Z,33.20
2018-04-14T08:54:46.624Z,32.78
2018-04-14T08:55:46.897Z,34.05
2018-04-14T08:56:46.961Z,35.57
2018-04-14T08:57:47.142Z,36.05
2018-04-14T08:58:47.332Z,35.74
2018-04-14T08:59:47.523Z,36.85
2018-04-14T09:00:47.705Z,38.39
2018-04-14T09:01:47.897Z,38.79
2018-04-14T09:02:48.104Z,38.50
2018-04-14T09:03:48.601Z,38.25
2018-04-14T09:04:48.754Z,37.30
2018-04-14T09:05:48.923Z,36.52
2018-04-14T09:06:49.098Z,36.83
2018-04-14T09:07:49.100Z,36.04
2018-04-14T09:08:49.115Z,35.50
2018-04-14T09:09:49.314Z,34.82
2018-04-14T09:10:49.508Z,33.95
2018-04-14T09:11:49.704Z,33.28
2018-04-14T09:12:49.907Z,32.89
2018-04-14T09:13:50.104Z,34.03
2018-04-14T09:14:50.315Z,34.45
2018-04-14T09:15:50.619Z,33.46
2018-04-14T09:16:50.733Z,34.03
2018-04-14T09:17:50.938Z,33.11
2018-04-14T09:18:51.128Z,31.12
2018-04-14T09:19:51.320Z,30.15
2018-04-14T09:20:51.509Z,29.86
2018-04-14T09:21:51.703Z,29.85
2018-04-14T09:22:51.889Z,32.71
2018-04-14T09:23:52.091Z,37.13
2018-04-14T09:24:52.325Z,38.76
2018-04-14T09:25:52.412Z,37.71
2018-04-14T09:26:52.618Z,38.46
2018-04-14T09:27:52.802Z,38.87
2018-04-14T09:28:52.991Z,37.92
2018-04-14T09:29:53.183Z,36.44
2018-04-14T09:30:53.379Z,33.39
2018-04-14T09:31:53.578Z,32.99
2018-04-14T09:32:53.763Z,32.59
2018-04-14T09:33:53.965Z,34.66
2018-04-14T09:34:54.199Z,37.05
2018-04-14T09:35:54.450Z,36.81
2018-04-14T09:36:54.511Z,37.35
2018-04-14T09:37:54.938Z,37.45
2018-04-14T09:38:55.767Z,38.81
2018-04-14T09:39:55.042Z,38.71
2018-04-14T09:40:55.239Z,37.53
2018-04-14T09:41:55.432Z,38.64
2018-04-14T09:42:55.716Z,41.02
2018-04-14T09:43:55.759Z,41.31
2018-04-14T09:44:55.994Z,42.10
2018-04-14T09:45:56.065Z,41.99
2018-04-14T09:46:56.260Z,42.00
2018-04-14T09:47:56.448Z,42.66
2018-04-14T09:48:56.639Z,44.65
2018-04-14T09:49:56.850Z,44.70
2018-04-14T09:50:57.074Z,41.16
2018-04-14T09:51:57.236Z,39.57
2018-04-14T09:52:57.428Z,37.92
2018-04-14T09:53:57.611Z,38.00
2018-04-14T09:54:57.843Z,40.90
2018-04-14T09:55:58.034Z,41.31
2018-04-14T09:56:58.234Z,40.11
2018-04-14T09:57:58.427Z,39.37
2018-04-14T09:58:58.612Z,38.19
2018-04-14T09:59:58.806Z,39.62
2018-04-14T10:00:58.996Z,39.14
2018-04-14T10:01:59.250Z,38.02
2018-04-14T10:02:59.330Z,36.60
2018-04-14T10:03:59.500Z,36.19
2018-04-14T10:04:59.691Z,37.16
2018-04-14T10:05:59.885Z,37.61
2018-04-14T10:07:00.073Z,38.02
2018-04-14T10:08:00.483Z,37.63
2018-04-14T10:09:00.683Z,37.84
2018-04-14T10:10:00.550Z,38.27
2018-04-14T10:11:00.739Z,40.15
2018-04-14T10:12:00.929Z,40.94
2018-04-14T10:13:01.111Z,41.04
2018-04-14T10:14:01.301Z,41.42
2018-04-14T10:15:01.506Z,39.62
2018-04-14T10:16:01.691Z,38.21
2018-04-14T10:17:01.877Z,38.97
2018-04-14T10:18:02.065Z,41.83
2018-04-14T10:19:02.254Z,42.70
2018-04-14T10:20:02.441Z,44.07
2018-04-14T10:21:02.632Z,44.07
2018-04-14T10:22:02.818Z,44.78
2018-04-14T10:23:03.018Z,46.23
2018-04-14T10:24:03.203Z,47.07
2018-04-14T10:25:03.390Z,46.59
2018-04-14T10:26:03.574Z,46.86
2018-04-14T10:27:03.782Z,47.92
2018-04-14T10:28:03.961Z,48.66
2018-04-14T10:29:04.159Z,47.70
2018-04-14T10:30:04.353Z,48.38
2018-04-14T10:31:04.546Z,50.25
2018-04-14T10:32:04.736Z,51.53
2018-04-14T10:33:04.916Z,50.88
2018-04-14T10:34:05.099Z,49.05
2018-04-14T10:35:05.286Z,48.93
2018-04-14T10:36:05.734Z,47.80
2018-04-14T10:37:05.820Z,46.75
2018-04-14T10:38:06.020Z,45.59
2018-04-14T10:39:06.118Z,43.68
2018-04-14T10:40:06.127Z,43.49
2018-04-14T10:41:06.272Z,43.66
2018-04-14T10:42:06.453Z,43.68
2018-04-14T10:43:06.642Z,44.17
2018-04-14T10:44:06.834Z,44.17
2018-04-14T10:45:07.018Z,43.68
2018-04-14T10:46:07.204Z,43.78
2018-04-14T10:47:07.393Z,42.52
2018-04-14T10:48:07.606Z,43.28
2018-04-14T10:49:07.809Z,44.15
2018-04-14T10:50:08.021Z,44.26
2018-04-14T10:51:08.410Z,44.17
2018-04-14T10:52:08.713Z,43.92
2018-04-14T10:53:08.543Z,44.33
2018-04-14T10:54:08.729Z,42.30
2018-04-14T10:55:08.912Z,41.24
2018-04-14T10:56:09.098Z,41.11
2018-04-14T10:57:09.288Z,42.07
2018-04-14T10:58:09.476Z,43.98
2018-04-14T10:59:09.668Z,42.99
2018-04-14T11:00:09.851Z,42.99
2018-04-14T11:01:10.039Z,44.60
2018-04-14T11:02:10.241Z,44.73
2018-04-14T11:03:10.422Z,44.82
2018-04-14T11:04:10.609Z,44.24
2018-04-14T11:05:10.800Z,43.85
2018-04-14T11:06:11.039Z,43.66
2018-04-14T11:07:11.089Z,42.89
2018-04-14T11:08:11.292Z,43.76
2018-04-14T11:09:11.476Z,43.54
2018-04-14T11:10:11.658Z,43.72
2018-04-14T11:11:11.853Z,46.30
2018-04-14T11:12:12.039Z,47.34
2018-04-14T11:13:12.219Z,48.06
2018-04-14T11:14:12.408Z,49.41
2018-04-14T11:15:12.649Z,49.79
2018-04-14T11:16:12.786Z,49.32
2018-04-14T11:17:12.976Z,49.60
2018-04-14T11:18:13.187Z,49.79
2018-04-14T11:19:13.371Z,50.09
2018-04-14T11:20:13.560Z,48.81
2018-04-14T11:21:15.885Z,49.38
2018-04-14T11:22:13.914Z,49.96
2018-04-14T11:23:14.098Z,50.18
2018-04-14T11:24:14.283Z,49.10
2018-04-14T11:25:14.463Z,50.15
2018-04-14T11:26:14.652Z,50.76
2018-04-14T11:27:14.872Z,50.47
2018-04-14T11:28:15.065Z,49.89
2018-04-14T11:29:15.241Z,50.30
2018-04-14T11:30:15.439Z,49.27
2018-04-14T11:31:15.641Z,48.40
2018-04-14T11:32:15.821Z,48.01
2018-04-14T11:33:16.018Z,47.24
2018-04-14T11:34:16.200Z,47.92
2018-04-14T11:35:16.388Z,47.92
2018-04-14T11:36:16.585Z,46.64
2018-04-14T11:37:16.763Z,47.00
2018-04-14T11:38:16.945Z,46.91
2018-04-14T11:39:17.131Z,46.23
2018-04-14T11:40:17.318Z,46.14
2018-04-14T11:41:17.532Z,46.23
2018-04-14T11:42:17.706Z,45.58
2018-04-14T11:43:17.945Z,45.48
2018-04-14T11:44:18.975Z,45.10
2018-04-14T11:45:18.331Z,45.12
2018-04-14T11:46:18.509Z,44.25
2018-04-14T11:47:18.691Z,43.85
2018-04-14T11:48:18.879Z,43.85
2018-04-14T11:49:19.057Z,43.73
2018-04-14T11:50:19.239Z,44.49
2018-04-14T11:51:19.427Z,45.46
2018-04-14T11:52:19.939Z,45.84
2018-04-14T11:53:19.741Z,45.46
2018-04-14T11:54:19.924Z,45.36
2018-04-14T11:55:20.154Z,45.12
2018-04-14T11:56:20.344Z,46.37
2018-04-14T11:57:20.634Z,45.21
2018-04-14T11:58:20.695Z,44.35
2018-04-14T11:59:20.880Z,43.19
2018-04-14T12:00:21.075Z,44.25
2018-04-14T12:01:21.267Z,43.94
2018-04-14T12:02:21.461Z,42.97
2018-04-14T12:03:21.632Z,43.94
2018-04-14T12:04:21.811Z,44.62
2018-04-14T12:05:21.995Z,43.65
2018-04-14T12:06:22.179Z,44.42
2018-04-14T12:07:22.367Z,43.94
2018-04-14T12:08:22.550Z,43.07
2018-04-14T12:09:22.732Z,43.65
2018-04-14T12:10:22.938Z,43.48
2018-04-14T12:11:23.123Z,43.67
2018-04-14T12:12:23.311Z,43.85
2018-04-14T12:13:23.501Z,43.94
2018-04-14T12:14:23.677Z,44.04
2018-04-14T12:15:23.869Z,43.65
2018-04-14T12:16:24.050Z,44.13
2018-04-14T12:17:24.240Z,43.90
2018-04-14T12:18:24.418Z,44.40
2018-04-14T12:19:24.602Z,44.48
2018-04-14T12:20:24.792Z,44.38
2018-04-14T12:21:24.967Z,44.86
2018-04-14T12:22:25.153Z,45.17
2018-04-14T12:23:25.352Z,46.23
2018-04-14T12:24:25.526Z,47.19
2018-04-14T12:25:25.711Z,46.33
2018-04-14T12:26:25.897Z,45.56
2018-04-14T12:27:26.090Z,44.79
2018-04-14T12:28:26.291Z,45.94
2018-04-14T12:29:26.455Z,44.49
2018-04-14T12:30:26.635Z,45.17
2018-04-14T12:31:26.821Z,44.90
2018-04-14T12:32:26.998Z,43.94
2018-04-14T12:33:27.190Z,44.04
2018-04-14T12:34:27.390Z,44.42
2018-04-14T12:35:27.579Z,44.42
2018-04-14T12:36:27.763Z,44.71
2018-04-14T12:37:27.951Z,44.81
2018-04-14T12:38:28.133Z,43.63
2018-04-14T12:39:28.366Z,43.94
2018-04-14T12:40:28.537Z,44.42
2018-04-14T12:41:28.723Z,44.71
2018-04-14T12:42:28.913Z,43.65
2018-04-14T12:43:29.126Z,44.04
2018-04-14T12:44:29.314Z,44.42
2018-04-14T12:45:29.498Z,43.63
2018-04-14T12:46:29.689Z,43.92
2018-04-14T12:47:29.865Z,44.40
2018-04-14T12:48:30.050Z,46.21
2018-04-14T12:49:30.233Z,45.56
2018-04-14T12:50:30.434Z,45.05
2018-04-14T12:51:30.622Z,45.15
2018-04-14T12:52:30.810Z,44.49
2018-04-14T12:53:30.991Z,44.49
2018-04-14T12:54:31.214Z,44.32